Time;durP1;ratioP1;P1;durP2;ratioP2;P2;SDS_P1;SDS_P2;PMS_P1;PMS_P2;Temp;Humidity;BMP_temperature;BMP_pressure;BME280_temperature;BME280_humidity;BME280_pressure;Samples;Min_cycle;Max_cycle;Signal;HPM_P1;HPM_P2
2023/01/20 00:00:04;;;;;;;23.15;15.48;;;;;;;-0.79;100.00;100229.34;697938;28;1214;-66
2023/01/20 00:00:32;;;;;;;23.88;15.70;;;;;;;-0.79;100.00;100236.16;700323;28;1174;-66
2023/01/20 00:00:53;;;;;;;24.45;16.27;;;;;;;-0.81;100.00;100233.53;697843;28;1147;-68
2023/01/20 00:01:14;;;;;;;21.53;15.50;;;;;;;-0.83;100.00;100230.06;697370;28;1027;-66
2023/01/20 00:01:38;;;;;;;25.50;15.15;;;;;;;-0.84;100.00;100230.88;698219;28;1482;-65
2023/01/20 00:01:59;;;;;;;27.63;15.60;;;;;;;-0.86;100.00;100235.06;696440;28;4418;-66
2023/01/20 00:02:19;;;;;;;24.42;15.43;;;;;;;-0.86;100.00;100233.41;698250;28;1344;-66
2023/01/20 00:02:40;;;;;;;23.57;15.40;;;;;;;-0.84;100.00;100236.03;699203;28;1375;-66
2023/01/20 00:03:00;;;;;;;21.83;15.18;;;;;;;-0.82;100.00;100241.19;700608;28;1455;-66
2023/01/20 00:03:20;;;;;;;22.57;15.70;;;;;;;-0.83;100.00;100235.19;700802;28;1391;-66
2023/01/20 00:03:41;;;;;;;22.13;16.10;;;;;;;-0.83;100.00;100237.78;701300;28;1115;-66
2023/01/20 00:04:02;;;;;;;21.80;15.80;;;;;;;-0.82;100.00;100234.38;700745;28;1498;-66
2023/01/20 00:04:22;;;;;;;21.40;15.52;;;;;;;-0.80;100.00;100232.75;701033;28;1439;-67
2023/01/20 00:04:42;;;;;;;21.08;15.15;;;;;;;-0.79;100.00;100234.50;698248;28;2116;-66
2023/01/20 00:05:03;;;;;;;21.33;15.40;;;;;;;-0.80;100.00;100237.88;698781;28;4473;-66
2023/01/20 00:05:24;;;;;;;23.75;15.70;;;;;;;-0.81;100.00;100238.69;696041;28;1412;-69
2023/01/20 00:05:51;;;;;;;22.55;15.93;;;;;;;-0.83;100.00;100232.63;698390;28;1591;-67
2023/01/20 00:06:12;;;;;;;22.42;15.73;;;;;;;-0.87;100.00;100233.34;697978;28;1225;-67
2023/01/20 00:06:32;;;;;;;23.10;15.63;;;;;;;-0.88;100.00;100239.28;697658;28;1122;-67
2023/01/20 00:06:53;;;;;;;24.47;16.63;;;;;;;-0.90;100.00;100233.22;698111;28;1316;-67
2023/01/20 00:07:14;;;;;;;23.48;16.35;;;;;;;-0.92;100.00;100237.44;698630;28;1287;-67
2023/01/20 00:07:34;;;;;;;24.05;16.27;;;;;;;-0.90;100.00;100233.22;701025;28;1332;-67
2023/01/20 00:07:55;;;;;;;20.23;15.27;;;;;;;-0.87;100.00;100239.34;700308;28;4423;-67
2023/01/20 00:08:15;;;;;;;21.87;15.53;;;;;;;-0.90;100.00;100234.13;700029;28;1483;-67
2023/01/20 00:08:36;;;;;;;23.53;16.00;;;;;;;-0.92;100.00;100232.31;700521;28;1281;-67
2023/01/20 00:08:59;;;;;;;23.65;16.02;;;;;;;-0.84;100.00;100233.44;700937;28;1274;-67
2023/01/20 00:09:19;;;;;;;22.00;15.48;;;;;;;-0.79;100.00;100237.06;699901;28;1276;-66
2023/01/20 00:09:39;;;;;;;21.60;15.50;;;;;;;-0.79;100.00;100234.50;700529;28;1305;-67
2023/01/20 00:10:00;;;;;;;21.90;15.30;;;;;;;-0.77;100.00;100239.69;700370;28;1178;-67
2023/01/20 00:10:20;;;;;;;20.67;15.05;;;;;;;-0.75;100.00;100238.91;700796;28;1222;-67
2023/01/20 00:10:41;;;;;;;20.43;14.90;;;;;;;-0.72;100.00;100236.44;700965;28;1269;-67
2023/01/20 00:11:06;;;;;;;21.23;15.30;;;;;;;-0.74;100.00;100232.06;700165;28;4627;-66
2023/01/20 00:11:27;;;;;;;22.92;15.98;;;;;;;-0.76;100.00;100234.59;700547;28;2083;-66
2023/01/20 00:11:48;;;;;;;24.30;16.08;;;;;;;-0.78;100.00;100236.22;700849;28;1455;-66
2023/01/20 00:12:08;;;;;;;21.65;15.48;;;;;;;-0.78;100.00;100238.78;700953;28;1217;-65
2023/01/20 00:12:30;;;;;;;22.70;15.40;;;;;;;-0.78;100.00;100240.47;700444;28;1235;-66
2023/01/20 00:12:51;;;;;;;24.42;16.02;;;;;;;-0.78;100.00;100238.78;699420;28;1180;-70
2023/01/20 00:13:11;;;;;;;25.08;17.13;;;;;;;-0.77;100.00;100240.53;700258;28;1386;-66
2023/01/20 00:13:33;;;;;;;23.90;16.17;;;;;;;-0.79;100.00;100249.88;697362;28;1379;-65
2023/01/20 00:13:55;;;;;;;27.42;16.05;;;;;;;-0.80;100.00;100243.00;697429;28;4397;-65
2023/01/20 00:14:15;;;;;;;25.83;16.83;;;;;;;-0.77;100.00;100239.69;697725;28;1309;-66
2023/01/20 00:14:36;;;;;;;21.52;15.98;;;;;;;-0.79;100.00;100244.75;697740;28;1282;-67
2023/01/20 00:14:56;;;;;;;21.17;15.23;;;;;;;-0.77;100.00;100243.09;697269;28;1402;-66
2023/01/20 00:15:17;;;;;;;19.55;14.68;;;;;;;-0.72;100.00;100245.81;694353;28;1154;-66
2023/01/20 00:15:37;;;;;;;20.08;14.82;;;;;;;-0.72;100.00;100239.00;694580;28;1444;-66
2023/01/20 00:15:58;;;;;;;21.53;15.93;;;;;;;-0.75;100.00;100238.91;694823;28;1324;-66
2023/01/20 00:16:18;;;;;;;23.27;16.52;;;;;;;-0.79;100.00;100238.72;695331;28;1267;-66
2023/01/20 00:16:38;;;;;;;22.87;16.23;;;;;;;-0.82;100.00;100239.50;694991;28;1247;-66
2023/01/20 00:16:59;;;;;;;24.13;16.20;;;;;;;-0.82;100.00;100239.50;694627;28;4529;-66
2023/01/20 00:17:19;;;;;;;23.23;16.40;;;;;;;-0.85;100.00;100241.97;695584;28;1226;-66
2023/01/20 00:17:40;;;;;;;23.27;15.87;;;;;;;-0.85;100.00;100244.53;697653;28;1249;-65
2023/01/20 00:18:00;;;;;;;25.92;15.73;;;;;;;-0.88;100.00;100239.28;697742;28;1996;-66
2023/01/20 00:18:20;;;;;;;27.23;16.50;;;;;;;-0.90;100.00;100240.91;698075;28;1379;-66
2023/01/20 00:18:41;;;;;;;26.98;16.85;;;;;;;-0.93;100.00;100240.81;698169;28;1249;-66
2023/01/20 00:19:01;;;;;;;25.90;16.33;;;;;;;-0.95;100.00;100242.47;697853;28;1246;-67
2023/01/20 00:19:22;;;;;;;23.20;16.20;;;;;;;-0.97;100.00;100247.56;701221;28;1289;-65
2023/01/20 00:19:42;;;;;;;23.23;16.13;;;;;;;-0.99;100.00;100232.91;700131;28;1298;-66
2023/01/20 00:20:03;;;;;;;25.03;16.07;;;;;;;-0.99;100.00;100238.06;699031;28;4486;-66
2023/01/20 00:20:24;;;;;;;23.48;15.95;;;;;;;-1.00;100.00;100239.72;700135;28;1546;-66
2023/01/20 00:20:44;;;;;;;23.77;15.83;;;;;;;-0.98;100.00;100244.91;700490;28;1586;-66
2023/01/20 00:21:06;;;;;;;26.83;15.80;;;;;;;-1.04;100.00;100238.75;697462;28;1503;-66
2023/01/20 00:21:27;;;;;;;24.63;16.27;;;;;;;-1.04;100.00;100238.75;698213;28;1290;-66
2023/01/20 00:21:48;;;;;;;29.77;16.85;;;;;;;-1.05;100.00;100246.41;697886;28;1380;-66
2023/01/20 00:22:08;;;;;;;27.93;17.33;;;;;;;-1.06;100.00;100249.78;697537;28;1166;-66
2023/01/20 00:22:28;;;;;;;26.20;17.00;;;;;;;-1.06;100.00;100245.53;698011;28;1222;-66
2023/01/20 00:22:49;;;;;;;26.30;16.30;;;;;;;-1.05;100.00;100244.72;698230;28;1383;-66
2023/01/20 00:23:09;;;;;;;24.33;16.77;;;;;;;-1.04;100.00;100243.91;691825;28;4563;-66
2023/01/20 00:23:30;;;;;;;23.60;16.50;;;;;;;-1.01;100.00;100242.25;690183;28;1304;-65
2023/01/20 00:23:50;;;;;;;22.90;16.45;;;;;;;-1.01;100.00;100245.69;689799;28;1121;-66
2023/01/20 00:24:11;;;;;;;23.30;16.47;;;;;;;-1.00;100.00;100246.56;689546;28;1160;-66
2023/01/20 00:24:32;;;;;;;23.05;16.45;;;;;;;-0.98;100.00;100247.47;690326;28;1327;-66
2023/01/20 00:24:52;;;;;;;24.13;16.43;;;;;;;-1.00;100.00;100246.56;692252;28;1283;-67
2023/01/20 00:25:12;;;;;;;23.92;15.95;;;;;;;-1.00;100.00;100244.00;697776;28;1079;-66
2023/01/20 00:25:36;;;;;;;25.20;16.67;;;;;;;-1.01;100.00;100250.84;697469;28;1351;-66
2023/01/20 00:25:56;;;;;;;24.65;17.25;;;;;;;-1.00;100.00;100246.56;696262;28;4392;-66
2023/01/20 00:26:20;;;;;;;24.03;16.37;;;;;;;-1.01;100.00;100247.38;696805;28;1249;-67
2023/01/20 00:26:40;;;;;;;25.05;16.50;;;;;;;-0.99;100.00;100248.31;698071;28;1294;-66
2023/01/20 00:27:01;;;;;;;23.75;16.23;;;;;;;-0.97;100.00;100239.84;697880;28;1855;-66
2023/01/20 00:27:21;;;;;;;22.80;16.03;;;;;;;-0.94;100.00;100244.19;696329;28;1452;-66
2023/01/20 00:27:41;;;;;;;22.67;16.60;;;;;;;-0.93;100.00;100244.28;698348;28;1229;-66
2023/01/20 00:28:03;;;;;;;23.42;16.40;;;;;;;-0.93;100.00;100241.72;697929;28;1257;-66
2023/01/20 00:28:23;;;;;;;22.55;16.05;;;;;;;-0.92;100.00;100242.56;696788;28;1459;-67
2023/01/20 00:28:44;;;;;;;21.73;15.05;;;;;;;-0.92;100.00;100252.84;698249;28;1281;-66
2023/01/20 00:29:05;;;;;;;24.55;16.58;;;;;;;-0.94;100.00;100246.75;697574;28;5396;-66
2023/01/20 00:29:26;;;;;;;24.05;16.15;;;;;;;-0.93;100.00;100244.28;700571;28;1134;-66
2023/01/20 00:29:46;;;;;;;23.47;16.47;;;;;;;-0.94;100.00;100244.19;697854;28;1328;-66
2023/01/20 00:30:07;;;;;;;26.13;16.17;;;;;;;-0.95;100.00;100245.91;697794;28;1104;-66
2023/01/20 00:30:28;;;;;;;25.90;15.90;;;;;;;-0.94;100.00;100244.19;697626;28;1425;-66
2023/01/20 00:30:48;;;;;;;24.02;16.58;;;;;;;-0.95;100.00;100247.59;697934;28;1114;-67
2023/01/20 00:31:15;;;;;;;22.17;16.20;;;;;;;-0.92;100.00;100253.69;697713;28;1007;-67
2023/01/20 00:31:35;;;;;;;20.48;15.05;;;;;;;-0.92;100.00;100247.72;698777;28;1044;-66
2023/01/20 00:31:56;;;;;;;21.15;15.25;;;;;;;-0.90;100.00;100251.19;700295;28;4473;-67
2023/01/20 00:32:16;;;;;;;22.57;15.70;;;;;;;-0.93;100.00;100245.94;699946;28;1087;-66
2023/01/20 00:32:38;;;;;;;21.58;15.52;;;;;;;-0.93;100.00;100248.53;700696;28;1130;-67
2023/01/20 00:32:58;;;;;;;20.52;15.43;;;;;;;-0.92;100.00;100247.72;700050;28;1280;-67
2023/01/20 00:33:19;;;;;;;21.87;15.70;;;;;;;-0.94;100.00;100251.91;700437;28;4992;-67
2023/01/20 00:33:39;;;;;;;23.07;15.60;;;;;;;-0.97;100.00;100249.22;700424;28;1098;-67
2023/01/20 00:34:01;;;;;;;22.05;15.63;;;;;;;-0.99;100.00;100254.31;699545;28;1115;-67
2023/01/20 00:34:21;;;;;;;21.85;15.82;;;;;;;-0.97;100.00;100254.38;697730;28;1234;-67
2023/01/20 00:34:41;;;;;;;21.75;15.65;;;;;;;-0.96;100.00;100253.56;697837;28;1171;-67
2023/01/20 00:35:02;;;;;;;24.03;15.70;;;;;;;-0.97;100.00;100254.38;696716;28;4457;-66
2023/01/20 00:35:22;;;;;;;23.27;15.35;;;;;;;-0.96;100.00;100256.97;697371;28;1269;-66
2023/01/20 00:35:42;;;;;;;22.07;15.30;;;;;;;-0.95;100.00;100250.16;698443;28;1274;-66
2023/01/20 00:36:03;;;;;;;21.60;14.90;;;;;;;-0.94;100.00;100251.91;694801;28;1294;-67
2023/01/20 00:36:25;;;;;;;22.03;15.73;;;;;;;-0.96;100.00;100261.25;697761;28;1408;-66
2023/01/20 00:36:45;;;;;;;27.05;16.33;;;;;;;-0.97;100.00;100255.25;695344;28;1618;-67
2023/01/20 00:37:05;;;;;;;23.60;15.83;;;;;;;-0.98;100.00;100263.75;691780;28;1323;-66
2023/01/20 00:37:26;;;;;;;22.50;15.55;;;;;;;-0.99;100.00;100256.88;692727;28;1183;-67
2023/01/20 00:37:46;;;;;;;25.30;16.50;;;;;;;-0.99;100.00;100256.00;692983;28;1071;-67
2023/01/20 00:38:06;;;;;;;23.67;16.10;;;;;;;-0.98;100.00;100260.31;693734;28;4532;-66
2023/01/20 00:38:27;;;;;;;22.57;15.57;;;;;;;-0.96;100.00;100263.81;695635;28;1100;-67
2023/01/20 00:38:48;;;;;;;23.27;15.80;;;;;;;-0.94;100.00;100260.50;697682;28;1576;-66
2023/01/20 00:39:08;;;;;;;24.98;16.33;;;;;;;-0.95;100.00;100260.44;700582;28;1150;-65
2023/01/20 00:39:29;;;;;;;24.93;16.60;;;;;;;-0.97;100.00;100255.25;700770;28;1297;-66
2023/01/20 00:39:49;;;;;;;23.92;16.58;;;;;;;-0.96;100.00;100262.09;700831;28;1126;-66
2023/01/20 00:40:10;;;;;;;23.03;15.87;;;;;;;-0.95;100.00;100263.88;700043;28;964;-66
2023/01/20 00:40:30;;;;;;;23.25;15.70;;;;;;;-0.96;100.00;100256.97;700569;28;1373;-65
2023/01/20 00:40:54;;;;;;;23.30;15.67;;;;;;;-0.96;100.00;100258.69;699892;28;1063;-66
2023/01/20 00:41:15;;;;;;;22.20;16.20;;;;;;;-0.97;100.00;100265.53;699778;28;4989;-66
2023/01/20 00:41:35;;;;;;;21.95;15.73;;;;;;;-0.97;100.00;100256.94;697548;28;1912;-66
2023/01/20 00:41:56;;;;;;;20.88;15.20;;;;;;;-0.97;100.00;100262.06;697862;28;1159;-65
2023/01/20 00:42:16;;;;;;;20.87;15.20;;;;;;;-0.96;100.00;100261.25;696730;28;1346;-66
2023/01/20 00:42:36;;;;;;;21.67;15.45;;;;;;;-0.96;100.00;100261.25;697905;28;1144;-66
2023/01/20 00:42:57;;;;;;;24.37;16.40;;;;;;;-0.97;100.00;100262.06;697340;28;1103;-67
2023/01/20 00:43:17;;;;;;;25.00;16.42;;;;;;;-0.99;100.00;100263.72;698128;28;1261;-66
2023/01/20 00:43:38;;;;;;;24.27;16.23;;;;;;;-0.99;100.00;100256.00;700704;28;1175;-66
2023/01/20 00:43:58;;;;;;;25.52;16.23;;;;;;;-1.00;100.00;100264.53;699554;28;4562;-66
2023/01/20 00:44:19;;;;;;;24.63;16.20;;;;;;;-1.00;100.00;100261.97;700410;28;1105;-66
2023/01/20 00:44:39;;;;;;;25.47;16.90;;;;;;;-1.03;100.00;100260.16;700449;28;1150;-67
2023/01/20 00:44:59;;;;;;;24.70;16.20;;;;;;;-1.03;100.00;100262.72;700464;28;1087;-66
2023/01/20 00:45:20;;;;;;;25.70;16.52;;;;;;;-1.04;100.00;100258.41;699526;28;1192;-66
2023/01/20 00:45:40;;;;;;;24.60;15.93;;;;;;;-1.05;100.00;100254.97;700674;28;1146;-68
2023/01/20 00:46:02;;;;;;;22.40;15.52;;;;;;;-1.04;100.00;100264.44;700071;28;1400;-67
2023/01/20 00:46:22;;;;;;;20.85;15.18;;;;;;;-1.00;100.00;100267.09;701251;28;1158;-67
2023/01/20 00:46:42;;;;;;;21.10;15.20;;;;;;;-1.00;100.00;100265.38;700208;28;1194;-66
2023/01/20 00:47:03;;;;;;;19.35;14.77;;;;;;;-0.97;100.00;100265.53;700364;28;4581;-66
2023/01/20 00:47:23;;;;;;;20.17;14.50;;;;;;;-0.89;100.00;100268.34;701294;28;1344;-66
2023/01/20 00:47:43;;;;;;;20.75;15.07;;;;;;;-0.86;100.00;100274.47;700348;28;1379;-66
2023/01/20 00:48:04;;;;;;;20.07;15.33;;;;;;;-0.84;100.00;100279.66;701362;28;1468;-66
2023/01/20 00:48:24;;;;;;;20.35;15.60;;;;;;;-0.87;100.00;100266.72;701530;28;1393;-67
2023/01/20 00:48:45;;;;;;;21.57;16.13;;;;;;;-0.89;100.00;100269.22;701187;28;1597;-66
2023/01/20 00:49:05;;;;;;;22.27;15.93;;;;;;;-0.90;100.00;100267.47;699405;28;1490;-66
2023/01/20 00:49:25;;;;;;;21.97;15.63;;;;;;;-0.91;100.00;100275.13;701623;28;1125;-66
2023/01/20 00:49:47;;;;;;;20.75;15.65;;;;;;;-0.90;100.00;100272.59;701622;28;1189;-67
2023/01/20 00:50:07;;;;;;;22.38;15.48;;;;;;;-0.88;100.00;100264.97;696699;28;4377;-67
2023/01/20 00:50:28;;;;;;;21.88;15.43;;;;;;;-0.86;100.00;100268.44;695102;28;1285;-66
2023/01/20 00:50:48;;;;;;;23.13;15.20;;;;;;;-0.84;100.00;100276.19;695672;28;1170;-66
2023/01/20 00:51:09;;;;;;;22.30;15.43;;;;;;;-0.86;100.00;100266.75;694479;28;1150;-67
2023/01/20 00:51:30;;;;;;;24.88;15.90;;;;;;;-0.88;100.00;100270.09;696001;28;1268;-67
2023/01/20 00:51:50;;;;;;;24.33;16.20;;;;;;;-0.92;100.00;100263.97;696245;28;1207;-67
2023/01/20 00:52:10;;;;;;;23.52;15.93;;;;;;;-0.91;100.00;100272.56;698710;28;1086;-67
2023/01/20 00:52:31;;;;;;;25.57;16.23;;;;;;;-0.92;100.00;100268.25;701722;28;1055;-67
2023/01/20 00:52:51;;;;;;;23.73;16.33;;;;;;;-0.91;100.00;100264.84;698495;28;1198;-67
2023/01/20 00:53:11;;;;;;;23.40;15.80;;;;;;;-0.92;100.00;100263.97;697291;28;4328;-67
2023/01/20 00:53:32;;;;;;;23.60;16.00;;;;;;;-0.91;100.00;100270.00;698050;28;1154;-67
2023/01/20 00:53:53;;;;;;;24.23;16.10;;;;;;;-0.88;100.00;100270.09;693737;28;2254;-66
2023/01/20 00:54:13;;;;;;;22.73;15.77;;;;;;;-0.88;100.00;100270.97;693795;28;1225;-67
2023/01/20 00:54:33;;;;;;;20.77;15.23;;;;;;;-0.88;100.00;100268.38;693882;28;1132;-67
2023/01/20 00:54:56;;;;;;;21.02;14.68;;;;;;;-0.87;100.00;100276.97;694228;28;1047;-67
2023/01/20 00:55:16;;;;;;;20.25;14.75;;;;;;;-0.86;100.00;100269.34;695100;28;1123;-66
2023/01/20 00:55:37;;;;;;;21.17;15.10;;;;;;;-0.83;100.00;100268.56;696292;28;1182;-67
2023/01/20 00:55:57;;;;;;;20.27;15.13;;;;;;;-0.81;100.00;100272.03;699350;28;4467;-67
2023/01/20 00:56:17;;;;;;;21.15;15.20;;;;;;;-0.79;100.00;100274.66;701381;28;1292;-66
2023/01/20 00:56:38;;;;;;;21.40;14.87;;;;;;;-0.79;100.00;100275.56;697876;28;1102;-67
2023/01/20 00:56:58;;;;;;;21.75;15.20;;;;;;;-0.81;100.00;100269.47;697170;28;1183;-67
2023/01/20 00:57:18;;;;;;;21.53;15.73;;;;;;;-0.82;100.00;100267.72;697901;28;1320;-66
2023/01/20 00:57:39;;;;;;;20.57;15.03;;;;;;;-0.82;100.00;100275.44;697207;28;1222;-67
2023/01/20 00:57:59;;;;;;;19.75;14.82;;;;;;;-0.81;100.00;100271.19;697453;28;1910;-67
2023/01/20 00:58:20;;;;;;;22.17;15.53;;;;;;;-0.81;100.00;100271.19;697778;28;1169;-67
2023/01/20 00:58:44;;;;;;;23.45;16.15;;;;;;;-0.83;100.00;100268.56;701094;28;1265;-67
2023/01/20 00:59:04;;;;;;;24.02;16.70;;;;;;;-0.86;100.00;100271.91;699885;28;4280;-66
2023/01/20 00:59:24;;;;;;;25.17;16.97;;;;;;;-0.86;100.00;100268.44;700579;28;1342;-67
2023/01/20 00:59:45;;;;;;;24.55;16.40;;;;;;;-0.85;100.00;100270.19;701811;28;1197;-67
2023/01/20 01:00:05;;;;;;;21.97;16.00;;;;;;;-0.82;100.00;100269.44;698303;28;1562;-66
2023/01/20 01:00:26;;;;;;;22.90;16.00;;;;;;;-0.83;100.00;100273.72;695858;28;1154;-66
2023/01/20 01:00:47;;;;;;;23.93;16.10;;;;;;;-0.83;100.00;100266.00;696004;28;1230;-66
2023/01/20 01:01:08;;;;;;;24.65;16.42;;;;;;;-0.83;100.00;100271.13;695061;28;1190;-66
2023/01/20 01:01:28;;;;;;;22.02;16.08;;;;;;;-0.84;100.00;100271.94;694280;28;1255;-65
2023/01/20 01:01:49;;;;;;;20.80;15.43;;;;;;;-0.83;100.00;100271.13;693353;28;1246;-66
2023/01/20 01:02:09;;;;;;;21.33;15.82;;;;;;;-0.79;100.00;100270.44;694861;28;4357;-66
2023/01/20 01:02:29;;;;;;;21.27;15.97;;;;;;;-0.77;100.00;100270.47;698051;28;1309;-65
2023/01/20 01:02:50;;;;;;;23.17;16.23;;;;;;;-0.79;100.00;100266.97;698564;28;1277;-65
2023/01/20 01:03:10;;;;;;;24.57;17.10;;;;;;;-0.80;100.00;100263.53;695473;28;1151;-66
2023/01/20 01:03:31;;;;;;;24.57;17.23;;;;;;;-0.80;100.00;100267.78;695339;28;1222;-66
2023/01/20 01:03:53;;;;;;;24.40;16.45;;;;;;;-0.80;100.00;100267.78;697657;28;1281;-67
2023/01/20 01:04:13;;;;;;;24.85;16.45;;;;;;;-0.80;100.00;100271.25;697951;28;962;-66
2023/01/20 01:04:33;;;;;;;24.02;16.67;;;;;;;-0.79;100.00;100269.53;698636;28;1305;-66
2023/01/20 01:04:54;;;;;;;23.87;16.50;;;;;;;-0.80;100.00;100267.78;695300;28;4408;-67
2023/01/20 01:05:14;;;;;;;28.70;17.50;;;;;;;-0.82;100.00;100267.72;697071;28;1094;-66
2023/01/20 01:05:35;;;;;;;26.52;17.13;;;;;;;-0.82;100.00;100272.00;697771;28;1013;-66
2023/01/20 01:06:07;;;;;;;26.50;17.17;;;;;;;-0.84;100.00;100271.94;697764;28;1386;-65
2023/01/20 01:06:27;;;;;;;27.33;17.80;;;;;;;-0.86;100.00;100265.88;697918;28;1233;-66
2023/01/20 01:06:51;;;;;;;26.27;17.23;;;;;;;-0.87;100.00;100271.84;698763;28;1170;-66
2023/01/20 01:07:11;;;;;;;22.00;16.15;;;;;;;-0.86;100.00;100273.56;700020;28;1161;-66
2023/01/20 01:07:32;;;;;;;23.23;16.17;;;;;;;-0.85;100.00;100272.75;700559;28;1309;-65
2023/01/20 01:07:52;;;;;;;23.95;16.52;;;;;;;-0.85;100.00;100272.75;700738;28;1201;-66
2023/01/20 01:08:13;;;;;;;24.23;16.97;;;;;;;-0.84;100.00;100277.09;696958;28;4423;-65
2023/01/20 01:08:34;;;;;;;24.60;17.13;;;;;;;-0.83;100.00;100278.84;698720;28;1237;-67
2023/01/20 01:08:55;;;;;;;25.23;17.17;;;;;;;-0.84;100.00;100277.09;698803;28;1384;-67
2023/01/20 01:09:16;;;;;;;23.45;17.17;;;;;;;-0.84;100.00;100271.94;698488;28;1313;-66
2023/01/20 01:09:36;;;;;;;23.63;16.77;;;;;;;-0.83;100.00;100273.72;698446;28;1287;-66
2023/01/20 01:09:56;;;;;;;24.23;17.00;;;;;;;-0.84;100.00;100277.09;698382;28;1000;-66
2023/01/20 01:10:17;;;;;;;26.47;17.07;;;;;;;-0.83;100.00;100283.06;701011;28;1359;-66
2023/01/20 01:10:37;;;;;;;25.88;17.40;;;;;;;-0.83;100.00;100276.28;700765;28;1416;-66
2023/01/20 01:10:58;;;;;;;24.30;16.50;;;;;;;-0.81;100.00;100278.88;699993;28;4424;-66
2023/01/20 01:11:18;;;;;;;24.52;16.90;;;;;;;-0.82;100.00;100272.84;700631;28;1359;-67
2023/01/20 01:11:38;;;;;;;25.17;17.63;;;;;;;-0.82;100.00;100270.28;701162;28;1216;-66
2023/01/20 01:11:59;;;;;;;25.07;16.87;;;;;;;-0.80;100.00;100278.03;699506;28;1361;-66
2023/01/20 01:12:20;;;;;;;24.53;16.77;;;;;;;-0.81;100.00;100279.75;701443;28;1533;-66
2023/01/20 01:12:41;;;;;;;24.00;16.88;;;;;;;-0.81;100.00;100279.75;700597;28;1242;-66
2023/01/20 01:13:02;;;;;;;25.38;17.40;;;;;;;-0.82;100.00;100285.69;700537;28;1551;-67
2023/01/20 01:13:23;;;;;;;28.02;17.23;;;;;;;-0.83;100.00;100275.38;700690;28;1454;-65
2023/01/20 01:13:43;;;;;;;27.53;17.10;;;;;;;-0.83;100.00;100283.97;698518;28;1429;-66
2023/01/20 01:14:03;;;;;;;29.65;17.70;;;;;;;-0.83;100.00;100278.84;696564;28;4499;-66
2023/01/20 01:14:24;;;;;;;26.57;17.10;;;;;;;-0.83;100.00;100275.38;698665;28;1452;-66
2023/01/20 01:14:44;;;;;;;28.92;17.70;;;;;;;-0.82;100.00;100283.13;698103;28;1555;-67
2023/01/20 01:15:05;;;;;;;27.70;17.40;;;;;;;-0.83;100.00;100283.06;697761;28;1187;-66
2023/01/20 01:15:26;;;;;;;24.35;16.70;;;;;;;-0.83;100.00;100283.97;698493;28;1154;-67
2023/01/20 01:15:48;;;;;;;24.80;16.52;;;;;;;-0.84;100.00;100282.22;698581;28;1245;-67
2023/01/20 01:16:13;;;;;;;26.17;17.55;;;;;;;-0.84;100.00;100282.22;698444;28;1237;-67
2023/01/20 01:16:33;;;;;;;23.83;16.45;;;;;;;-0.82;100.00;100282.25;700828;28;1182;-67
2023/01/20 01:16:54;;;;;;;21.90;15.73;;;;;;;-0.82;100.00;100278.00;700414;28;4337;-67
2023/01/20 01:17:14;;;;;;;22.98;15.75;;;;;;;-0.79;100.00;100282.38;697558;28;1307;-67
2023/01/20 01:17:34;;;;;;;22.33;15.90;;;;;;;-0.76;100.00;100288.50;698205;28;1226;-69
2023/01/20 01:17:57;;;;;;;24.23;16.10;;;;;;;-0.77;100.00;100284.16;695222;28;1918;-66
2023/01/20 01:18:18;;;;;;;25.52;16.45;;;;;;;-0.79;100.00;100292.63;694275;28;1320;-66
2023/01/20 01:18:39;;;;;;;25.93;16.73;;;;;;;-0.80;100.00;100284.06;693940;28;1342;-66
2023/01/20 01:18:59;;;;;;;25.05;16.63;;;;;;;-0.80;100.00;100289.19;696026;28;1148;-67
2023/01/20 01:19:19;;;;;;;23.17;16.63;;;;;;;-0.80;100.00;100284.06;698244;28;1374;-67
2023/01/20 01:19:40;;;;;;;26.43;17.00;;;;;;;-0.79;100.00;100290.06;698260;28;1304;-66
2023/01/20 01:20:00;;;;;;;25.80;16.63;;;;;;;-0.80;100.00;100291.78;700173;28;4455;-67
2023/01/20 01:20:20;;;;;;;27.00;16.73;;;;;;;-0.81;100.00;100292.59;700359;28;1253;-66
2023/01/20 01:20:43;;;;;;;26.43;16.87;;;;;;;-0.82;100.00;100295.97;700531;28;1047;-66
2023/01/20 01:21:09;;;;;;;26.17;16.63;;;;;;;-0.82;100.00;100295.97;700306;28;1186;-66
2023/01/20 01:21:29;;;;;;;24.63;16.50;;;;;;;-0.82;100.00;100288.25;698612;28;1597;-67
2023/01/20 01:21:50;;;;;;;24.77;17.03;;;;;;;-0.82;100.00;100295.97;698819;28;1290;-66
2023/01/20 01:22:10;;;;;;;25.20;17.15;;;;;;;-0.82;100.00;100293.41;698142;28;1070;-67
2023/01/20 01:22:32;;;;;;;25.87;16.90;;;;;;;-0.82;100.00;100295.97;698385;28;1221;-67
2023/01/20 01:22:52;;;;;;;25.85;16.98;;;;;;;-0.81;100.00;100295.16;698795;28;1091;-66
2023/01/20 01:23:12;;;;;;;25.77;16.87;;;;;;;-0.80;100.00;100293.44;698483;28;4240;-67
2023/01/20 01:23:33;;;;;;;23.20;16.33;;;;;;;-0.80;100.00;100301.16;701814;28;987;-67
2023/01/20 01:23:53;;;;;;;24.00;16.40;;;;;;;-0.80;100.00;100304.59;700711;28;1082;-67
2023/01/20 01:24:13;;;;;;;23.13;16.02;;;;;;;-0.79;100.00;100296.09;699458;28;1262;-67
2023/01/20 01:24:34;;;;;;;20.73;15.53;;;;;;;-0.77;100.00;100298.72;698193;28;1139;-67
2023/01/20 01:24:54;;;;;;;21.55;15.88;;;;;;;-0.77;100.00;100297.00;698678;28;1086;-67
2023/01/20 01:25:15;;;;;;;22.23;16.33;;;;;;;-0.76;100.00;100305.56;697561;28;1250;-66
2023/01/20 01:25:37;;;;;;;23.17;16.57;;;;;;;-0.75;100.00;100300.50;698356;28;1072;-65
2023/01/20 01:25:57;;;;;;;25.73;17.50;;;;;;;-0.75;100.00;100303.09;697386;28;4417;-66
2023/01/20 01:26:17;;;;;;;25.23;17.03;;;;;;;-0.74;100.00;100298.81;699163;28;1167;-66
2023/01/20 01:26:38;;;;;;;24.70;16.52;;;;;;;-0.74;100.00;100298.81;700595;28;1126;-66
2023/01/20 01:26:58;;;;;;;25.07;16.17;;;;;;;-0.73;100.00;100296.28;700889;28;1005;-66
2023/01/20 01:27:19;;;;;;;25.70;17.02;;;;;;;-0.73;100.00;100298.88;701016;28;1039;-66
2023/01/20 01:27:39;;;;;;;24.83;16.40;;;;;;;-0.73;100.00;100295.44;701625;28;1155;-66
2023/01/20 01:28:00;;;;;;;25.63;16.57;;;;;;;-0.73;100.00;100304.00;700678;28;1075;-66
2023/01/20 01:28:20;;;;;;;24.92;16.42;;;;;;;-0.64;100.00;100302.56;700473;28;1059;-66
2023/01/20 01:28:41;;;;;;;22.08;16.10;;;;;;;-0.64;100.00;100307.72;701294;28;1441;-67
2023/01/20 01:29:01;;;;;;;22.60;16.10;;;;;;;-0.66;100.00;100309.34;700815;28;4710;-66
2023/01/20 01:29:21;;;;;;;23.23;15.90;;;;;;;-0.66;100.00;100302.53;701624;28;1095;-67
2023/01/20 01:29:42;;;;;;;23.03;15.70;;;;;;;-0.67;100.00;100305.03;700941;28;3346;-66
2023/01/20 01:30:03;;;;;;;20.83;14.95;;;;;;;-0.67;100.00;100305.91;701255;28;1141;-65
2023/01/20 01:30:23;;;;;;;20.88;15.50;;;;;;;-0.66;100.00;100306.78;701506;28;1244;-66
2023/01/20 01:30:44;;;;;;;21.97;15.97;;;;;;;-0.66;100.00;100304.22;700882;28;1123;-66
2023/01/20 01:31:06;;;;;;;23.98;16.08;;;;;;;-0.65;100.00;100304.28;700487;28;1161;-66
2023/01/20 01:31:26;;;;;;;23.33;15.90;;;;;;;-0.64;100.00;100302.56;701635;28;1051;-66
2023/01/20 01:31:47;;;;;;;24.00;16.33;;;;;;;-0.66;100.00;100301.66;700523;28;1292;-66
2023/01/20 01:32:07;;;;;;;23.97;16.10;;;;;;;-0.66;100.00;100304.22;696158;28;4572;-66
2023/01/20 01:32:28;;;;;;;24.70;16.00;;;;;;;-0.68;100.00;100304.16;698082;28;1293;-66
2023/01/20 01:32:48;;;;;;;28.10;16.93;;;;;;;-0.71;100.00;100312.63;697533;28;1309;-66
2023/01/20 01:33:08;;;;;;;26.35;16.48;;;;;;;-0.72;100.00;100307.44;698549;28;1161;-66
2023/01/20 01:33:29;;;;;;;27.27;15.97;;;;;;;-0.74;100.00;100304.81;698445;28;4922;-66
2023/01/20 01:33:49;;;;;;;25.30;16.42;;;;;;;-0.74;100.00;100307.38;697961;28;1148;-66
2023/01/20 01:34:10;;;;;;;26.87;16.70;;;;;;;-0.73;100.00;100314.25;701691;28;1199;-66
2023/01/20 01:34:30;;;;;;;24.58;16.17;;;;;;;-0.67;100.00;100312.75;698594;28;1091;-66
2023/01/20 01:34:51;;;;;;;22.90;16.23;;;;;;;-0.67;100.00;100310.19;698274;28;984;-65
2023/01/20 01:35:11;;;;;;;21.65;15.70;;;;;;;-0.68;100.00;100306.72;697135;28;4404;-66
2023/01/20 01:35:31;;;;;;;20.57;15.53;;;;;;;-0.68;100.00;100314.41;698609;28;1190;-65